Time;durP1;ratioP1;P1;durP2;ratioP2;P2;SDS_P1;SDS_P2;PMS_P1;PMS_P2;Temp;Humidity;BMP_temperature;BMP_pressure;BME280_temperature;BME280_humidity;BME280_pressure;Samples;Min_cycle;Max_cycle;Signal;HPM_P1;HPM_P2
2022/11/18 00:01:16;;;;;;;1.70;0.80;;;7.20;99.90;;;;;;5077962;28;20047;-65
2022/11/18 00:03:43;;;;;;;1.85;0.80;;;7.20;99.90;;;;;;5075028;28;20058;-66
2022/11/18 00:06:14;;;;;;;1.20;0.80;;;7.20;99.90;;;;;;5076725;28;20047;-66
2022/11/18 00:08:41;;;;;;;0.85;0.85;;;7.20;99.90;;;;;;5078174;28;20120;-65
2022/11/18 00:14:23;;;;;;;0.70;0.70;;;7.20;99.90;;;;;;5067796;28;20105;-66
2022/11/18 00:16:59;;;;;;;3.10;1.10;;;7.20;99.90;;;;;;5080889;28;20047;-65
2022/11/18 00:19:38;;;;;;;1.38;0.95;;;7.20;99.90;;;;;;5083087;28;20047;-65
2022/11/18 00:22:06;;;;;;;1.15;0.85;;;7.20;99.90;;;;;;5077855;28;20044;-66
2022/11/18 00:24:33;;;;;;;0.85;0.85;;;7.20;99.90;;;;;;5078103;28;20040;-65
2022/11/18 00:27:00;;;;;;;1.10;1.00;;;7.10;99.90;;;;;;5077820;28;21020;-65
2022/11/18 00:29:27;;;;;;;;;;;7.10;99.90;;;;;;5077066;28;20060;-66
2022/11/18 00:31:55;;;;;;;1.50;0.77;;;7.10;99.90;;;;;;5079306;28;20016;-67
2022/11/18 00:34:22;;;;;;;3.78;1.23;;;7.10;99.90;;;;;;5080998;28;20143;-66
2022/11/18 00:36:48;;;;;;;;;;;7.10;99.90;;;;;;5079734;28;20051;-65
2022/11/18 00:39:17;;;;;;;1.33;1.00;;;7.10;99.90;;;;;;5076696;28;19923;-66
2022/11/18 00:44:30;;;;;;;3.55;0.90;;;7.10;99.90;;;;;;5076512;28;20168;-66
2022/11/18 00:46:57;;;;;;;0.73;0.73;;;7.10;99.90;;;;;;5079435;28;20044;-66
2022/11/18 00:49:24;;;;;;;;;;;7.10;99.90;;;;;;5079628;28;20050;-65
2022/11/18 00:51:51;;;;;;;0.90;0.90;;;7.00;99.90;;;;;;5074993;28;19924;-66
2022/11/18 00:54:18;;;;;;;0.80;0.80;;;7.00;99.90;;;;;;5077305;28;20040;-67
2022/11/18 00:56:44;;;;;;;0.85;0.70;;;7.00;99.90;;;;;;5076656;28;20066;-66
2022/11/18 00:59:11;;;;;;;2.72;1.00;;;7.00;99.90;;;;;;5079298;28;20074;-66
2022/11/18 01:01:38;;;;;;;2.15;1.00;;;7.00;99.90;;;;;;5079539;28;20140;-66
2022/11/18 01:04:04;;;;;;;;;;;6.90;99.90;;;;;;5079156;28;20460;-65
2022/11/18 01:06:31;;;;;;;1.98;0.77;;;7.00;99.90;;;;;;5081816;28;20864;-66
2022/11/18 01:08:58;;;;;;;;;;;6.90;99.90;;;;;;5083404;28;20047;-66
2022/11/18 01:14:10;;;;;;;1.48;1.05;;;7.00;99.90;;;;;;5082381;28;20060;-67
2022/11/18 01:16:37;;;;;;;;;;;7.00;99.90;;;;;;5085374;28;20116;-65
2022/11/18 01:19:04;;;;;;;2.63;1.00;;;7.00;99.90;;;;;;5079900;28;19924;-67
2022/11/18 01:21:30;;;;;;;;;;;7.00;99.90;;;;;;5083487;28;20074;-66
2022/11/18 01:23:57;;;;;;;0.82;0.80;;;7.00;99.90;;;;;;5080076;28;20707;-65
2022/11/18 01:26:24;;;;;;;7.57;1.75;;;6.90;99.90;;;;;;5081796;28;20134;-66
2022/11/18 01:28:54;;;;;;;1.38;1.27;;;7.00;99.90;;;;;;5081329;28;20047;-66
2022/11/18 01:31:21;;;;;;;1.67;1.27;;;7.00;99.90;;;;;;5082490;28;20143;-67
2022/11/18 01:33:47;;;;;;;4.57;1.40;;;6.90;99.90;;;;;;5083797;28;20039;-66
2022/11/18 01:36:18;;;;;;;1.73;1.10;;;7.00;99.90;;;;;;5081177;28;20132;-67
2022/11/18 01:38:45;;;;;;;2.38;1.23;;;7.00;99.90;;;;;;5080770;28;20516;-65
2022/11/18 01:41:12;;;;;;;1.88;1.10;;;7.00;99.90;;;;;;5080468;28;20425;-66
2022/11/18 01:43:56;;;;;;;1.50;1.25;;;7.00;99.90;;;;;;5075840;28;20044;-66
2022/11/18 01:46:25;;;;;;;5.00;1.00;;;7.00;99.90;;;;;;5081143;28;20136;-67
2022/11/18 01:49:13;;;;;;;1.13;0.98;;;7.00;99.90;;;;;;5078323;28;20058;-66
2022/11/18 01:51:52;;;;;;;4.80;1.40;;;7.00;99.90;;;;;;5073490;28;20076;-67
2022/11/18 01:54:32;;;;;;;7.72;1.45;;;6.90;99.90;;;;;;5078248;28;20036;-66
2022/11/18 01:57:02;;;;;;;2.08;1.40;;;7.00;99.90;;;;;;5078708;28;20067;-66
2022/11/18 01:59:36;;;;;;;3.28;1.60;;;7.00;99.90;;;;;;5080891;28;20039;-65
2022/11/18 02:02:07;;;;;;;2.63;1.52;;;7.00;99.90;;;;;;5079640;28;20077;-66
2022/11/18 02:04:35;;;;;;;7.00;1.20;;;7.10;99.90;;;;;;5082464;28;20040;-67
2022/11/18 02:07:01;;;;;;;4.00;1.50;;;7.10;99.90;;;;;;5079566;28;20039;-68
2022/11/18 02:09:29;;;;;;;4.63;1.38;;;7.10;99.90;;;;;;5079579;28;20051;-68
2022/11/18 02:11:56;;;;;;;1.60;0.98;;;7.10;99.90;;;;;;5080452;28;20122;-68
2022/11/18 02:14:30;;;;;;;0.68;0.52;;;7.10;99.90;;;;;;5079826;28;20080;-65
2022/11/18 02:17:15;;;;;;;0.32;0.28;;;7.00;99.90;;;;;;5084478;28;20078;-65
2022/11/18 02:19:45;;;;;;;0.98;0.30;;;6.90;99.90;;;;;;5062420;28;20052;-67
2022/11/18 02:22:34;;;;;;;0.30;0.20;;;6.90;99.90;;;;;;5079807;28;20455;-65
2022/11/18 02:25:19;;;;;;;0.88;0.52;;;6.80;99.90;;;;;;5080227;28;20040;-66
2022/11/18 02:28:14;;;;;;;0.25;0.20;;;6.70;99.90;;;;;;5081023;28;20508;-67
2022/11/18 02:31:05;;;;;;;0.10;0.10;;;6.60;99.90;;;;;;5078779;28;20047;-68
2022/11/18 02:33:40;;;;;;;0.10;0.10;;;6.50;99.90;;;;;;5073583;28;20729;-67
2022/11/18 02:36:19;;;;;;;0.82;0.35;;;6.50;99.90;;;;;;5080407;28;20043;-67
2022/11/18 02:38:56;;;;;;;2.10;0.25;;;6.40;99.90;;;;;;5077334;28;20101;-68
2022/11/18 02:41:26;;;;;;;4.90;0.67;;;6.40;99.90;;;;;;5081533;28;20215;-67
2022/11/18 02:43:58;;;;;;;0.90;0.70;;;6.40;99.90;;;;;;5077395;28;20036;-66
2022/11/18 02:46:32;;;;;;;1.95;0.60;;;6.40;99.90;;;;;;5078231;28;20032;-66
2022/11/18 02:49:01;;;;;;;1.83;0.60;;;6.30;99.90;;;;;;5082393;28;20059;-68
2022/11/18 02:51:32;;;;;;;1.70;0.50;;;6.30;99.90;;;;;;5080535;28;20638;-66
2022/11/18 02:54:03;;;;;;;1.42;0.60;;;6.30;99.90;;;;;;5083347;28;20050;-66
2022/11/18 02:56:32;;;;;;;1.35;0.32;;;6.30;99.90;;;;;;5081953;28;20734;-66
2022/11/18 02:58:59;;;;;;;0.85;0.50;;;6.30;99.90;;;;;;5076946;28;20042;-65
2022/11/18 03:01:28;;;;;;;;;;;6.20;99.90;;;;;;5079600;28;20044;-66
2022/11/18 03:03:55;;;;;;;1.35;0.45;;;6.20;99.90;;;;;;5084059;28;20029;-66
2022/11/18 03:06:28;;;;;;;0.25;0.25;;;6.20;99.90;;;;;;5081136;28;20097;-66
2022/11/18 03:09:16;;;;;;;2.58;0.32;;;6.20;99.90;;;;;;5075021;28;20044;-68
2022/11/18 03:12:37;;;;;;;1.10;0.52;;;6.20;99.90;;;;;;5081449;28;20048;-67
2022/11/18 03:15:23;;;;;;;0.20;0.20;;;6.20;99.90;;;;;;5034361;28;20056;-65
2022/11/18 03:17:52;;;;;;;0.85;0.30;;;6.10;99.90;;;;;;5073851;28;20162;-66
2022/11/18 03:20:25;;;;;;;0.10;0.10;;;6.10;99.90;;;;;;5077105;28;20105;-65
2022/11/18 03:23:04;;;;;;;0.30;0.30;;;6.10;99.90;;;;;;5075570;28;20039;-66
2022/11/18 03:25:53;;;;;;;3.80;0.30;;;6.10;99.90;;;;;;5076004;28;20452;-65
2022/11/18 03:28:32;;;;;;;0.32;0.17;;;6.20;99.90;;;;;;5076156;28;20682;-67
2022/11/18 03:31:07;;;;;;;0.20;0.20;;;6.10;99.90;;;;;;5081905;28;20127;-65
2022/11/18 03:33:38;;;;;;;0.10;0.10;;;6.10;99.90;;;;;;5079805;28;20032;-66
2022/11/18 03:36:08;;;;;;;0.20;0.10;;;6.10;99.90;;;;;;5080178;28;20047;-66
2022/11/18 03:38:40;;;;;;;0.17;0.10;;;6.10;99.90;;;;;;5076575;28;20036;-66
2022/11/18 03:41:09;;;;;;;0.10;0.10;;;6.10;99.90;;;;;;5076281;28;20043;-66
2022/11/18 03:43:40;;;;;;;0.32;0.20;;;6.10;99.90;;;;;;5063734;28;20686;-65
2022/11/18 03:46:27;;;;;;;0.10;0.10;;;6.20;99.90;;;;;;5073699;28;20128;-65
2022/11/18 03:48:56;;;;;;;0.20;0.20;;;6.20;99.90;;;;;;5078284;28;20941;-66
2022/11/18 03:51:34;;;;;;;0.03;0.03;;;6.30;99.90;;;;;;5079152;28;20056;-66
2022/11/18 03:54:28;;;;;;;0.28;0.20;;;6.30;99.90;;;;;;5080743;28;20047;-64
2022/11/18 03:57:02;;;;;;;2.17;0.10;;;6.30;99.90;;;;;;5078479;28;20105;-65
2022/11/18 03:59:38;;;;;;;0.20;0.20;;;6.30;99.90;;;;;;5073836;28;20692;-65
2022/11/18 04:02:12;;;;;;;0.20;0.20;;;6.30;99.90;;;;;;5077851;28;20452;-67
2022/11/18 04:04:39;;;;;;;0.75;0.20;;;6.30;99.90;;;;;;5081419;28;20122;-67
2022/11/18 04:07:31;;;;;;;0.17;0.17;;;6.30;99.90;;;;;;5076110;28;20052;-66
2022/11/18 04:10:19;;;;;;;0.10;0.10;;;6.20;99.90;;;;;;5075811;28;20510;-65
2022/11/18 04:13:05;;;;;;;0.13;0.10;;;6.20;99.90;;;;;;5077734;28;20125;-65
2022/11/18 04:15:37;;;;;;;0.10;0.10;;;6.10;99.90;;;;;;5078572;28;20093;-66
2022/11/18 04:18:04;;;;;;;1.45;0.90;;;6.10;99.90;;;;;;5077738;28;20151;-66
2022/11/18 04:20:32;;;;;;;0.10;0.10;;;6.10;99.90;;;;;;5060184;28;20072;-66
2022/11/18 04:23:00;;;;;;;0.50;0.40;;;6.00;99.90;;;;;;5076607;28;20038;-66
2022/11/18 04:25:26;;;;;;;0.35;0.20;;;6.00;99.90;;;;;;5076441;28;20781;-65
2022/11/18 04:27:53;;;;;;;1.45;0.22;;;5.90;99.90;;;;;;5077937;28;20054;-65
2022/11/18 04:30:20;;;;;;;;;;;5.90;99.90;;;;;;5074417;28;20151;-66
2022/11/18 04:32:47;;;;;;;0.20;0.20;;;5.80;99.90;;;;;;5076004;28;19920;-65
2022/11/18 04:35:14;;;;;;;;;;;5.80;99.90;;;;;;5075083;28;20192;-66
2022/11/18 04:37:41;;;;;;;0.65;0.32;;;5.80;99.90;;;;;;5077585;28;20174;-66
2022/11/18 04:40:08;;;;;;;0.43;0.22;;;5.80;99.90;;;;;;5076992;28;20769;-65
2022/11/18 04:42:35;;;;;;;0.25;0.20;;;5.70;99.90;;;;;;5074198;28;20097;-66
2022/11/18 04:45:03;;;;;;;0.85;0.40;;;5.80;99.90;;;;;;5074866;28;20125;-65
2022/11/18 04:47:30;;;;;;;2.83;0.63;;;5.80;99.90;;;;;;5077440;28;20051;-66
2022/11/18 04:49:56;;;;;;;;;;;5.80;99.90;;;;;;5076641;28;20118;-65
2022/11/18 04:52:24;;;;;;;2.70;0.73;;;5.90;99.90;;;;;;5075724;28;20661;-66
2022/11/18 04:54:50;;;;;;;0.28;0.28;;;5.90;99.90;;;;;;5074390;28;20036;-65
2022/11/18 04:57:17;;;;;;;;;;;6.00;99.90;;;;;;5060509;28;20062;-65
2022/11/18 04:59:44;;;;;;;6.60;0.63;;;6.10;99.90;;;;;;5072764;28;19924;-65
2022/11/18 05:02:11;;;;;;;3.40;0.40;;;6.20;99.90;;;;;;5075400;28;20039;-65
2022/11/18 05:04:38;;;;;;;0.30;0.30;;;6.30;99.90;;;;;;5078459;28;20050;-64
2022/11/18 05:07:06;;;;;;;0.40;0.30;;;6.40;99.90;;;;;;5075918;28;20051;-66
2022/11/18 05:09:33;;;;;;;0.45;0.20;;;6.40;99.90;;;;;;5074935;28;20048;-66
2022/11/18 05:14:45;;;;;;;0.90;0.25;;;6.50;99.90;;;;;;5082074;28;19923;-65
2022/11/18 05:17:17;;;;;;;0.30;0.20;;;6.50;99.90;;;;;;5076966;28;20151;-66
2022/11/18 05:19:44;;;;;;;0.38;0.30;;;6.40;99.90;;;;;;5076584;28;20084;-65
2022/11/18 05:22:10;;;;;;;3.15;0.63;;;6.40;99.90;;;;;;5078215;28;20040;-66
2022/11/18 05:24:37;;;;;;;2.65;0.40;;;6.40;99.90;;;;;;5075748;28;20117;-65
2022/11/18 05:27:04;;;;;;;;;;;6.40;99.90;;;;;;5076489;28;20659;-66
2022/11/18 05:29:32;;;;;;;1.05;0.75;;;6.40;99.90;;;;;;5075002;28;19971;-66
2022/11/18 05:31:59;;;;;;;0.30;0.30;;;6.30;99.90;;;;;;5076610;28;20040;-65
2022/11/18 05:34:25;;;;;;;4.68;0.40;;;6.30;99.90;;;;;;5076472;28;20040;-66
2022/11/18 05:36:52;;;;;;;;;;;6.30;99.90;;;;;;5074169;28;20044;-66
2022/11/18 05:39:19;;;;;;;1.85;0.55;;;6.40;99.90;;;;;;5080161;28;19923;-66
2022/11/18 05:44:32;;;;;;;3.50;0.60;;;6.40;99.90;;;;;;5080800;28;20047;-66
2022/11/18 05:46:59;;;;;;;;;;;6.50;99.90;;;;;;5078055;28;20071;-65
2022/11/18 05:49:26;;;;;;;0.60;0.23;;;6.50;99.90;;;;;;5077630;28;19924;-65
2022/11/18 05:51:52;;;;;;;;;;;6.50;99.90;;;;;;5084290;28;20434;-66
2022/11/18 05:54:20;;;;;;;2.55;0.35;;;6.50;99.90;;;;;;5064419;28;20315;-66
2022/11/18 05:56:47;;;;;;;0.40;0.40;;;6.40;99.90;;;;;;5078210;28;20758;-65
2022/11/18 05:59:14;;;;;;;2.85;0.30;;;6.40;99.90;;;;;;5079187;28;20041;-66
2022/11/18 06:01:44;;;;;;;1.17;0.60;;;6.30;99.90;;;;;;5082122;28;20048;-66
2022/11/18 06:04:19;;;;;;;3.03;0.30;;;6.30;99.90;;;;;;5080310;28;20142;-66
2022/11/18 06:06:48;;;;;;;1.33;0.35;;;6.30;99.90;;;;;;5078614;28;20140;-67
2022/11/18 06:09:19;;;;;;;0.20;0.20;;;6.20;99.90;;;;;;5079874;28;20040;-66
2022/11/18 06:11:50;;;;;;;1.10;0.35;;;6.20;99.90;;;;;;5080054;28;20132;-65
2022/11/18 06:14:24;;;;;;;0.65;0.38;;;6.10;99.90;;;;;;5082472;28;20621;-65
2022/11/18 06:16:57;;;;;;;0.38;0.20;;;6.10;99.90;;;;;;5081350;28;20071;-67
2022/11/18 06:19:24;;;;;;;0.35;0.30;;;6.10;99.90;;;;;;5078191;28;20035;-65
2022/11/18 06:21:52;;;;;;;0.40;0.30;;;6.10;99.90;;;;;;5079372;28;20068;-53
2022/11/18 06:24:19;;;;;;;0.93;0.38;;;6.10;99.90;;;;;;5078636;28;20104;-51
2022/11/18 06:26:46;;;;;;;0.50;0.50;;;6.10;99.90;;;;;;5081448;28;20134;-51
2022/11/18 06:29:17;;;;;;;1.95;0.68;;;6.10;99.90;;;;;;5080568;28;20112;-52
2022/11/18 06:31:50;;;;;;;1.77;0.50;;;6.10;99.90;;;;;;5078909;28;20460;-49
2022/11/18 06:34:16;;;;;;;1.67;0.50;;;6.10;99.90;;;;;;5079763;28;20037;-52
2022/11/18 06:36:43;;;;;;;;;;;6.00;99.90;;;;;;5078957;28;20124;-52
2022/11/18 06:39:10;;;;;;;0.25;0.25;;;6.00;99.90;;;;;;5076948;28;19950;-51
2022/11/18 06:41:36;;;;;;;;;;;6.00;99.90;;;;;;5078476;28;20036;-54
2022/11/18 06:44:03;;;;;;;0.60;0.40;;;6.00;99.90;;;;;;5079664;28;19924;-54
2022/11/18 06:49:16;;;;;;;2.95;1.10;;;6.00;99.90;;;;;;5077085;28;19920;-49
2022/11/18 06:51:43;;;;;;;2.83;0.82;;;6.00;99.90;;;;;;5077474;28;20081;-49
2022/11/18 06:54:10;;;;;;;6.90;0.65;;;6.00;99.90;;;;;;5077047;28;20055;-52
2022/11/18 06:56:37;;;;;;;1.63;0.50;;;6.00;99.90;;;;;;5077688;28;20067;-53
2022/11/18 06:59:04;;;;;;;6.85;0.60;;;6.10;99.90;;;;;;5079227;28;20043;-50
2022/11/18 07:01:33;;;;;;;2.75;0.47;;;6.10;99.90;;;;;;5078053;28;20032;-54
2022/11/18 07:04:01;;;;;;;1.02;0.52;;;6.10;99.90;;;;;;5075595;28;20907;-53
2022/11/18 07:06:31;;;;;;;0.40;0.25;;;6.00;99.90;;;;;;5075597;28;20413;-48
2022/11/18 07:09:03;;;;;;;1.17;0.50;;;6.10;99.90;;;;;;5078826;28;20619;-49
2022/11/18 07:11:30;;;;;;;2.33;0.35;;;6.00;99.90;;;;;;5075747;28;20558;-48
2022/11/18 07:13:57;;;;;;;1.35;0.22;;;5.90;99.90;;;;;;5077413;28;20524;-51
2022/11/18 07:16:25;;;;;;;0.10;0.10;;;5.90;99.90;;;;;;5077148;28;20047;-47
2022/11/18 07:18:54;;;;;;;2.03;0.40;;;5.80;99.90;;;;;;5079106;28;20040;-49
2022/11/18 07:21:24;;;;;;;1.60;0.45;;;5.70;99.90;;;;;;5083169;28;20046;-55
2022/11/18 07:23:51;;;;;;;0.70;0.40;;;5.70;99.90;;;;;;5082025;28;20040;-49
2022/11/18 07:26:18;;;;;;;1.67;0.45;;;5.60;99.90;;;;;;5077967;28;20082;-49
2022/11/18 07:28:45;;;;;;;0.98;0.40;;;5.60;99.90;;;;;;5074961;28;20055;-51
2022/11/18 07:31:19;;;;;;;2.38;1.00;;;5.50;99.90;;;;;;5081684;28;20052;-49
2022/11/18 07:33:47;;;;;;;4.28;1.95;;;5.50;99.90;;;;;;5075632;28;20070;-48
2022/11/18 07:36:16;;;;;;;1.10;0.63;;;5.50;99.90;;;;;;5077854;28;20769;-49
2022/11/18 07:38:44;;;;;;;1.55;0.50;;;5.50;99.90;;;;;;5061711;28;20669;-48
2022/11/18 07:41:29;;;;;;;1.02;0.63;;;5.50;99.90;;;;;;5077179;28;20834;-47
2022/11/18 07:46:06;;;;;;;0.52;0.45;;;5.50;99.90;;;;;;5035883;28;21377;-54
2022/11/18 07:48:33;;;;;;;0.52;0.40;;;5.50;99.90;;;;;;5034186;28;20037;-49
2022/11/18 07:51:00;;;;;;;0.85;0.35;;;5.60;99.90;;;;;;5035010;28;20546;-47
2022/11/18 07:53:29;;;;;;;;;;;5.60;99.90;;;;;;5038608;28;20115;-48
2022/11/18 07:55:55;;;;;;;0.25;0.25;;;5.70;99.90;;;;;;5035961;28;19959;-48
2022/11/18 07:58:22;;;;;;;0.63;0.43;;;5.70;99.90;;;;;;5037410;28;20123;-53
2022/11/18 08:00:49;;;;;;;;;;;5.70;99.90;;;;;;5035615;28;20712;-50
2022/11/18 08:03:15;;;;;;;0.40;0.40;;;5.80;99.90;;;;;;5036538;28;20398;-52
2022/11/18 08:05:42;;;;;;;0.43;0.43;;;5.80;99.90;;;;;;5036814;28;20095;-49
2022/11/18 08:08:09;;;;;;;;;;;5.90;99.90;;;;;;5034316;28;20713;-51
2022/11/18 08:10:36;;;;;;;0.27;0.27;;;6.00;99.90;;;;;;5037325;28;19983;-51
2022/11/18 08:13:03;;;;;;;0.50;0.50;;;6.10;99.90;;;;;;5017292;28;21016;-50
2022/11/18 08:15:30;;;;;;;0.20;0.20;;;6.20;99.90;;;;;;5036079;28;20576;-48
2022/11/18 08:17:57;;;;;;;0.55;0.28;;;6.40;99.90;;;;;;5034162;28;20068;-48
2022/11/18 08:20:26;;;;;;;;;;;6.60;99.90;;;;;;5034323;28;20053;-50
2022/11/18 08:22:53;;;;;;;1.73;0.55;;;6.70;99.90;;;;;;5034201;28;19920;-51
2022/11/18 08:25:19;;;;;;;1.25;0.50;;;6.80;99.90;;;;;;5036013;28;20124;-51
2022/11/18 08:27:46;;;;;;;0.65;0.50;;;6.90;99.90;;;;;;5034056;28;20167;-48
2022/11/18 08:30:13;;;;;;;;;;;6.90;99.90;;;;;;5035903;28;20045;-51
2022/11/18 08:32:40;;;;;;;0.38;0.20;;;6.90;99.90;;;;;;5035337;28;20035;-51
2022/11/18 08:35:07;;;;;;;0.30;0.30;;;6.90;99.90;;;;;;5037514;28;20072;-50
2022/11/18 08:37:37;;;;;;;1.50;0.55;;;6.90;99.90;;;;;;5034530;28;20110;-48
2022/11/18 08:40:04;;;;;;;;;;;6.90;99.90;;;;;;5034158;28;20053;-48
2022/11/18 08:42:31;;;;;;;1.27;0.57;;;7.00;99.90;;;;;;5035582;28;20474;-48
2022/11/18 08:45:00;;;;;;;0.40;0.40;;;7.00;99.90;;;;;;5034164;28;20051;-48
2022/11/18 08:47:27;;;;;;;1.65;0.47;;;7.10;99.90;;;;;;5031998;28;20048;-48
2022/11/18 08:49:53;;;;;;;0.40;0.40;;;7.10;99.90;;;;;;5034303;28;20045;-50
2022/11/18 08:52:20;;;;;;;2.10;1.05;;;7.10;99.90;;;;;;5036949;28;20045;-49
2022/11/18 08:54:47;;;;;;;;;;;7.10;99.90;;;;;;5032873;28;20100;-48
2022/11/18 08:57:14;;;;;;;0.95;0.50;;;7.10;99.90;;;;;;5030393;28;19925;-48
2022/11/18 08:59:40;;;;;;;0.47;0.47;;;7.10;99.90;;;;;;5017454;28;20046;-48
2022/11/18 09:02:18;;;;;;;;;;;7.20;99.90;;;;;;5018574;28;20459;-49
2022/11/18 09:04:49;;;;;;;0.40;0.40;;;7.20;99.90;;;;;;5022571;28;19924;-51
2022/11/18 09:07:17;;;;;;;0.30;0.30;;;7.20;99.90;;;;;;5021687;28;20049;-50
2022/11/18 09:09:44;;;;;;;0.63;0.40;;;7.20;99.90;;;;;;5022799;28;20037;-51
2022/11/18 09:12:16;;;;;;;0.50;0.50;;;7.30;99.90;;;;;;5020610;28;20523;-47
2022/11/18 09:14:44;;;;;;;0.30;0.30;;;7.30;99.90;;;;;;5022869;28;20044;-49
2022/11/18 09:17:30;;;;;;;;;;;7.30;99.90;;;;;;5025025;28;20041;-47
2022/11/18 09:19:57;;;;;;;0.32;0.32;;;7.30;99.90;;;;;;5021835;28;19921;-49
2022/11/18 09:22:25;;;;;;;;;;;7.30;99.90;;;;;;5022569;28;20064;-47
2022/11/18 09:24:51;;;;;;;0.55;0.40;;;7.40;99.90;;;;;;5020067;28;19931;-49
2022/11/18 09:27:18;;;;;;;0.20;0.20;;;7.60;99.90;;;;;;5021646;28;20049;-48
2022/11/18 09:29:45;;;;;;;;;;;7.90;99.90;;;;;;5020658;28;20621;-48
2022/11/18 09:32:13;;;;;;;0.30;0.30;;;8.20;99.90;;;;;;5027469;28;19994;-49
2022/11/18 09:34:39;;;;;;;0.20;0.20;;;8.40;99.90;;;;;;5016796;28;20055;-49
2022/11/18 09:37:06;;;;;;;0.32;0.30;;;8.60;99.90;;;;;;5018750;28;20073;-48
2022/11/18 09:39:34;;;;;;;;;;;8.70;99.90;;;;;;5019901;28;20148;-47
2022/11/18 09:42:23;;;;;;;0.40;0.40;;;8.70;99.90;;;;;;5020441;28;20205;-47
2022/11/18 09:45:07;;;;;;;0.22;0.20;;;8.60;99.90;;;;;;5020503;28;20041;-47
2022/11/18 09:47:40;;;;;;;0.50;0.40;;;8.40;99.90;;;;;;5020899;28;20300;-47
2022/11/18 09:50:13;;;;;;;0.73;0.30;;;8.30;99.90;;;;;;5019657;28;20155;-48
2022/11/18 09:53:05;;;;;;;0.10;0.10;;;8.20;99.90;;;;;;5021278;28;20046;-56
2022/11/18 09:55:35;;;;;;;0.20;0.20;;;8.00;99.90;;;;;;5018385;28;20302;-47
2022/11/18 09:58:04;;;;;;;1.05;0.30;;;7.90;99.90;;;;;;5027621;28;20798;-48
2022/11/18 10:00:31;;;;;;;0.17;0.17;;;7.90;99.90;;;;;;5019205;28;20045;-52
2022/11/18 10:03:03;;;;;;;0.60;0.47;;;7.80;99.90;;;;;;5016508;28;20053;-48
2022/11/18 10:05:36;;;;;;;0.98;0.50;;;7.80;99.90;;;;;;5019499;28;20036;-49
2022/11/18 10:08:24;;;;;;;2.38;1.15;;;7.90;99.90;;;;;;5021824;28;20192;-49
2022/11/18 10:10:54;;;;;;;5.63;2.40;;;8.00;99.90;;;;;;5018757;28;20071;-50
2022/11/18 10:13:42;;;;;;;4.88;2.63;;;8.00;99.90;;;;;;5020140;28;20647;-51
2022/11/18 10:16:35;;;;;;;5.72;2.78;;;8.00;99.90;;;;;;5019237;28;20073;-53
2022/11/18 10:19:15;;;;;;;6.97;3.20;;;8.00;99.90;;;;;;5017686;28;20551;-52
2022/11/18 10:21:59;;;;;;;6.65;3.22;;;8.00;99.90;;;;;;5018875;28;20080;-50
2022/11/18 10:24:32;;;;;;;3.55;1.73;;;7.90;99.90;;;;;;5022384;28;20079;-52
2022/11/18 10:26:59;;;;;;;0.98;0.80;;;7.90;99.90;;;;;;5021193;28;20140;-53
2022/11/18 10:29:26;;;;;;;1.27;1.02;;;7.80;99.90;;;;;;5025528;28;20053;-51
2022/11/18 10:32:03;;;;;;;1.23;0.80;;;7.70;99.90;;;;;;5018953;28;20042;-52
2022/11/18 10:34:31;;;;;;;;;;;7.70;99.90;;;;;;5020119;28;20037;-50
2022/11/18 10:37:12;;;;;;;0.55;0.55;;;7.70;99.90;;;;;;5021140;28;20023;-54
2022/11/18 10:39:59;;;;;;;0.40;0.40;;;7.60;99.90;;;;;;5019527;28;20707;-54
2022/11/18 10:42:46;;;;;;;1.30;0.75;;;7.60;99.90;;;;;;5020176;28;20578;-52
2022/11/18 10:45:22;;;;;;;0.40;0.40;;;7.60;99.90;;;;;;5020173;28;20357;-56
2022/11/18 10:48:18;;;;;;;2.63;0.60;;;7.50;99.90;;;;;;5021520;28;20069;-53
2022/11/18 10:50:47;;;;;;;0.80;0.50;;;7.50;99.90;;;;;;5012804;28;20045;-52
2022/11/18 10:53:36;;;;;;;0.22;0.22;;;7.50;99.90;;;;;;5016315;28;20313;-53
2022/11/18 10:56:21;;;;;;;0.50;0.50;;;7.40;99.90;;;;;;5019305;28;20134;-53
2022/11/18 10:58:49;;;;;;;2.58;0.63;;;7.50;99.90;;;;;;5017039;28;20057;-53
2022/11/18 11:01:23;;;;;;;1.90;0.50;;;7.40;99.90;;;;;;5016961;28;20049;-55
2022/11/18 11:04:19;;;;;;;2.10;0.50;;;7.50;99.90;;;;;;5016007;28;20500;-53
2022/11/18 11:06:46;;;;;;;0.80;0.35;;;7.40;99.90;;;;;;5016919;28;20045;-52
2022/11/18 11:09:13;;;;;;;0.40;0.40;;;7.40;99.90;;;;;;5018307;28;20213;-53
2022/11/18 11:12:00;;;;;;;0.40;0.32;;;7.50;99.90;;;;;;5017168;28;20377;-54
2022/11/18 11:14:51;;;;;;;3.53;0.60;;;7.40;99.90;;;;;;5019570;28;20157;-55
2022/11/18 11:17:34;;;;;;;0.32;0.32;;;7.50;99.90;;;;;;5016720;28;20574;-54
2022/11/18 11:20:16;;;;;;;0.30;0.30;;;7.50;99.90;;;;;;5020506;28;20045;-51
2022/11/18 11:22:44;;;;;;;0.60;0.50;;;7.50;99.90;;;;;;5020258;28;20041;-53
2022/11/18 11:25:35;;;;;;;0.45;0.35;;;7.50;99.90;;;;;;5018853;28;20470;-54
2022/11/18 11:28:49;;;;;;;0.75;0.50;;;7.50;99.90;;;;;;5018137;28;20049;-51
2022/11/18 11:31:24;;;;;;;0.40;0.40;;;7.50;99.90;;;;;;5017340;28;20303;-54
2022/11/18 11:34:16;;;;;;;0.73;0.40;;;7.50;99.90;;;;;;5021667;28;20063;-53
2022/11/18 11:37:01;;;;;;;0.57;0.40;;;7.50;99.90;;;;;;5017088;28;20404;-51
2022/11/18 11:39:58;;;;;;;0.43;0.30;;;7.50;99.90;;;;;;5022904;28;20096;-50
2022/11/18 11:42:46;;;;;;;3.30;0.70;;;7.60;99.90;;;;;;5010257;28;20054;-47
2022/11/18 11:45:31;;;;;;;2.05;0.38;;;7.60;99.90;;;;;;5013293;28;20045;-49
2022/11/18 11:48:09;;;;;;;0.50;0.50;;;7.60;99.90;;;;;;5012556;28;20040;-47
2022/11/18 11:50:53;;;;;;;0.60;0.35;;;7.60;99.90;;;;;;5012531;28;20077;-47
2022/11/18 11:54:34;;;;;;;0.57;0.50;;;7.60;99.90;;;;;;5009250;28;20147;-48
2022/11/18 11:57:19;;;;;;;0.30;0.30;;;7.60;99.90;;;;;;4991041;28;20068;-47
2022/11/18 12:00:01;;;;;;;0.30;0.30;;;7.60;99.90;;;;;;5010148;28;20049;-49
2022/11/18 12:02:59;;;;;;;1.50;0.40;;;7.60;99.90;;;;;;5010600;28;20131;-50
2022/11/18 12:05:35;;;;;;;0.57;0.57;;;7.60;99.90;;;;;;5013686;28;20041;-50
2022/11/18 12:08:08;;;;;;;0.77;0.50;;;7.60;99.90;;;;;;5010861;28;20571;-51
2022/11/18 12:11:10;;;;;;;0.40;0.40;;;7.60;99.90;;;;;;5009515;28;20495;-49
2022/11/18 12:13:54;;;;;;;2.33;0.50;;;7.60;99.90;;;;;;5009431;28;20064;-53
2022/11/18 12:16:26;;;;;;;0.50;0.40;;;7.50;99.90;;;;;;5010548;28;20052;-52
2022/11/18 12:19:12;;;;;;;1.00;0.50;;;7.50;99.90;;;;;;5011268;28;20373;-51
2022/11/18 12:21:45;;;;;;;0.40;0.40;;;7.40;99.90;;;;;;5010078;28;20056;-51
2022/11/18 12:24:29;;;;;;;0.70;0.70;;;7.40;99.90;;;;;;5012587;28;20515;-50
2022/11/18 12:27:01;;;;;;;2.60;0.68;;;7.40;99.90;;;;;;5009326;28;20051;-51
2022/11/18 12:29:48;;;;;;;0.50;0.50;;;7.40;99.90;;;;;;5010978;28;20037;-50
2022/11/18 12:32:33;;;;;;;0.63;0.37;;;7.40;99.90;;;;;;5014429;28;20241;-51
2022/11/18 12:35:12;;;;;;;0.40;0.40;;;7.30;99.90;;;;;;5013640;28;20902;-50
2022/11/18 12:38:00;;;;;;;1.15;0.40;;;7.30;99.90;;;;;;5015358;28;20496;-50
2022/11/18 12:40:30;;;;;;;;;;;7.20;99.90;;;;;;5014304;28;20237;-51
2022/11/18 12:45:43;;;;;;;0.10;0.10;;;7.10;99.90;;;;;;5011022;28;20052;-49
2022/11/18 12:48:29;;;;;;;0.30;0.25;;;7.10;99.90;;;;;;5014037;28;20136;-51
2022/11/18 12:51:30;;;;;;;0.40;0.40;;;7.00;99.90;;;;;;5013846;28;20049;-53
2022/11/18 12:53:57;;;;;;;0.30;0.20;;;7.00;99.90;;;;;;4993473;28;20065;-53
2022/11/18 12:56:28;;;;;;;;;;;7.00;99.90;;;;;;5014071;28;20059;-49
2022/11/18 12:58:58;;;;;;;0.80;0.25;;;7.00;99.90;;;;;;5015253;28;20163;-49
2022/11/18 13:01:33;;;;;;;0.20;0.20;;;7.00;99.90;;;;;;5011017;28;20449;-49
2022/11/18 13:04:20;;;;;;;0.20;0.20;;;7.00;99.90;;;;;;5029134;28;20049;-49
2022/11/18 13:06:52;;;;;;;0.30;0.30;;;7.00;99.90;;;;;;5026540;28;20052;-51
2022/11/18 13:09:23;;;;;;;0.45;0.20;;;7.10;99.90;;;;;;5026932;28;20128;-52
2022/11/18 13:11:54;;;;;;;0.25;0.25;;;7.10;99.90;;;;;;5025523;28;20045;-54
2022/11/18 13:26:28;;;;;;;0.20;0.20;;;7.20;99.90;;;;;;4985567;28;20038;-51
2022/11/18 13:29:27;;;;;;;2.05;0.30;;;7.20;99.90;;;;;;4988683;28;20058;-54
2022/11/18 13:32:07;;;;;;;1.23;0.70;;;7.30;99.90;;;;;;4988305;28;20491;-53
2022/11/18 13:34:44;;;;;;;1.27;0.30;;;7.30;99.90;;;;;;4986591;28;20054;-52
2022/11/18 13:37:16;;;;;;;1.45;0.40;;;7.30;99.90;;;;;;4993164;28;20050;-52
2022/11/18 13:39:44;;;;;;;0.50;0.50;;;7.30;99.90;;;;;;4987165;28;20042;-53
2022/11/18 13:42:18;;;;;;;0.93;0.55;;;7.20;99.90;;;;;;4992601;28;20053;-53
2022/11/18 13:44:56;;;;;;;0.40;0.40;;;7.20;99.90;;;;;;4991174;28;20046;-53
2022/11/18 13:47:30;;;;;;;0.50;0.30;;;7.20;99.90;;;;;;4974543;28;20046;-52
2022/11/18 13:50:31;;;;;;;3.10;0.35;;;7.20;99.90;;;;;;4972477;28;20062;-54
2022/11/18 13:52:57;;;;;;;4.18;0.60;;;7.20;99.90;;;;;;4973719;28;20171;-52
2022/11/18 13:55:27;;;;;;;0.35;0.35;;;7.30;99.90;;;;;;4971690;28;20136;-53
2022/11/18 13:58:04;;;;;;;0.40;0.40;;;7.30;99.90;;;;;;4976718;28;20073;-53
2022/11/18 14:00:34;;;;;;;0.98;0.40;;;7.30;99.90;;;;;;4985029;28;20822;-52
2022/11/18 14:03:27;;;;;;;0.55;0.40;;;7.20;99.90;;;;;;4988600;28;20048;-50
2022/11/18 14:05:55;;;;;;;0.43;0.20;;;7.20;99.90;;;;;;4969652;28;20086;-52
2022/11/18 14:08:27;;;;;;;0.75;0.57;;;7.10;99.90;;;;;;4975634;28;20112;-53
2022/11/18 14:10:54;;;;;;;0.52;0.40;;;7.10;99.90;;;;;;4972581;28;20035;-52